createdAt,value
2017-08-23T00:00:28.083Z,16.41
2017-08-23T00:02:57.151Z,16.35
2017-08-23T00:05:26.224Z,16.30
2017-08-23T00:07:55.311Z,16.28
2017-08-23T00:10:24.443Z,16.31
2017-08-23T00:12:53.482Z,16.30
2017-08-23T00:15:22.574Z,16.30
2017-08-23T00:17:51.647Z,16.29
2017-08-23T00:20:20.729Z,16.26
2017-08-23T00:22:50.555Z,16.24
2017-08-23T00:25:19.613Z,16.21
2017-08-23T00:27:48.672Z,16.16
2017-08-23T00:30:19.463Z,16.11
2017-08-23T00:32:49.595Z,16.06
2017-08-23T00:35:18.735Z,16.07
2017-08-23T00:37:47.791Z,16.07
2017-08-23T00:40:16.905Z,15.98
2017-08-23T00:42:47.001Z,15.91
2017-08-23T00:45:16.065Z,15.82
2017-08-23T00:47:45.156Z,15.68
2017-08-23T00:50:14.268Z,15.68
2017-08-23T00:52:44.409Z,15.66
2017-08-23T00:55:13.484Z,15.68
2017-08-23T00:57:43.352Z,15.71
2017-08-23T01:00:12.696Z,15.71
2017-08-23T01:02:41.768Z,15.74
2017-08-23T01:05:11.624Z,15.76
2017-08-23T01:07:40.910Z,15.76
2017-08-23T01:10:09.987Z,15.78
2017-08-23T01:12:39.145Z,15.73
2017-08-23T01:15:08.234Z,15.73
2017-08-23T01:17:37.295Z,15.72
2017-08-23T01:20:06.650Z,15.66
2017-08-23T01:22:35.715Z,15.58
2017-08-23T01:25:04.772Z,15.54
2017-08-23T01:27:34.628Z,15.53
2017-08-23T01:30:03.695Z,15.54
2017-08-23T01:32:33.505Z,15.52
2017-08-23T01:35:03.377Z,15.50
2017-08-23T01:37:32.432Z,15.51
2017-08-23T01:40:01.624Z,15.48
2017-08-23T01:42:30.692Z,15.46
2017-08-23T01:44:59.764Z,15.44
2017-08-23T01:47:28.826Z,15.42
2017-08-23T01:49:57.917Z,15.39
2017-08-23T01:52:26.983Z,15.40
2017-08-23T01:54:56.804Z,15.34
2017-08-23T01:57:25.895Z,15.28
2017-08-23T01:59:55.096Z,15.24
2017-08-23T02:02:24.174Z,15.24
2017-08-23T02:04:53.219Z,15.24
2017-08-23T02:07:22.295Z,15.25
2017-08-23T02:09:51.391Z,15.24
2017-08-23T02:12:20.479Z,15.20
2017-08-23T02:14:49.531Z,15.15
2017-08-23T02:17:18.604Z,15.18
2017-08-23T02:19:47.660Z,15.11
2017-08-23T02:22:16.752Z,15.01
2017-08-23T02:24:46.599Z,14.98
2017-08-23T02:27:15.648Z,14.98
2017-08-23T02:29:44.703Z,14.98
2017-08-23T02:32:13.794Z,14.96
2017-08-23T02:34:42.856Z,14.99
2017-08-23T02:37:11.905Z,14.99
2017-08-23T02:39:40.971Z,14.95
2017-08-23T02:42:10.048Z,14.92
2017-08-23T02:44:39.128Z,14.91
2017-08-23T02:47:08.214Z,14.84
2017-08-23T02:49:38.057Z,14.79
2017-08-23T02:52:07.164Z,14.80
2017-08-23T02:54:36.251Z,14.83
2017-08-23T02:57:05.603Z,14.75
2017-08-23T02:59:35.627Z,14.70
2017-08-23T03:02:04.694Z,14.72
2017-08-23T03:04:33.783Z,14.70
2017-08-23T03:07:02.884Z,14.66
2017-08-23T03:09:32.276Z,14.66
2017-08-23T03:12:01.388Z,14.66
2017-08-23T03:14:30.572Z,14.63
2017-08-23T03:16:59.812Z,14.64
2017-08-23T03:19:28.905Z,14.64
2017-08-23T03:21:58.268Z,14.64
2017-08-23T03:24:27.330Z,14.67
2017-08-23T03:26:56.407Z,14.68
2017-08-23T03:29:25.457Z,14.67
2017-08-23T03:31:54.545Z,14.64
2017-08-23T03:34:23.615Z,14.60
2017-08-23T03:36:53.488Z,14.55
2017-08-23T03:39:22.548Z,14.55
2017-08-23T03:41:51.615Z,14.52
2017-08-23T03:44:20.721Z,14.54
2017-08-23T03:46:50.520Z,14.53
2017-08-23T03:49:19.608Z,14.52
2017-08-23T03:51:49.431Z,14.47
2017-08-23T03:54:18.512Z,14.44
2017-08-23T03:56:47.556Z,14.46
2017-08-23T03:59:16.907Z,14.46
2017-08-23T04:01:45.978Z,14.51
2017-08-23T04:04:15.036Z,14.49
2017-08-23T04:06:44.143Z,14.47
2017-08-23T04:09:13.223Z,14.44
2017-08-23T04:11:42.278Z,14.42
2017-08-23T04:14:11.366Z,14.36
2017-08-23T04:16:40.425Z,14.35
2017-08-23T04:19:09.565Z,14.33
2017-08-23T04:21:38.615Z,14.31
2017-08-23T04:24:08.115Z,14.32
2017-08-23T04:26:37.205Z,14.29
2017-08-23T04:29:06.294Z,14.27
2017-08-23T04:31:35.343Z,14.28
2017-08-23T04:34:04.484Z,14.29
2017-08-23T04:36:33.737Z,14.32
2017-08-23T04:39:02.865Z,14.35
2017-08-23T04:41:31.926Z,14.34
2017-08-23T04:44:01.006Z,14.35
2017-08-23T04:46:30.069Z,14.33
2017-08-23T04:48:59.904Z,14.32
2017-08-23T04:51:28.994Z,14.30
2017-08-23T04:53:58.053Z,14.31
2017-08-23T04:56:27.127Z,14.39
2017-08-23T04:58:56.174Z,14.39
2017-08-23T05:01:25.245Z,14.43
2017-08-23T05:03:54.324Z,14.46
2017-08-23T05:06:24.234Z,14.49
2017-08-23T05:08:53.276Z,14.53
2017-08-23T05:11:22.344Z,14.62
2017-08-23T05:13:51.415Z,14.67
2017-08-23T05:16:20.506Z,14.71
2017-08-23T05:18:49.784Z,14.75
2017-08-23T05:21:18.874Z,14.72
2017-08-23T05:23:47.921Z,14.78
2017-08-23T05:26:17.004Z,14.82
2017-08-23T05:28:46.152Z,14.83
2017-08-23T05:31:15.219Z,14.85
2017-08-23T05:33:44.312Z,14.83
2017-08-23T05:36:13.389Z,14.85
2017-08-23T05:38:43.231Z,14.85
2017-08-23T05:41:12.295Z,14.80
2017-08-23T05:43:41.347Z,14.82
2017-08-23T05:46:10.445Z,14.85
2017-08-23T05:48:39.540Z,14.89
2017-08-23T05:51:08.585Z,14.84
2017-08-23T05:53:37.671Z,14.86
2017-08-23T05:56:06.777Z,14.88
2017-08-23T05:58:35.868Z,14.89
2017-08-23T06:01:05.096Z,14.91
2017-08-23T06:03:34.203Z,14.95
2017-08-23T06:06:03.365Z,14.99
2017-08-23T06:08:32.421Z,15.02
2017-08-23T06:11:01.508Z,15.07
2017-08-23T06:13:30.617Z,15.15
2017-08-23T06:15:59.670Z,15.25
2017-08-23T06:18:28.731Z,15.31
2017-08-23T06:20:57.785Z,15.39
2017-08-23T06:23:26.865Z,15.52
2017-08-23T06:25:55.952Z,15.66
2017-08-23T06:28:25.024Z,15.76
2017-08-23T06:30:54.144Z,15.87
2017-08-23T06:33:23.263Z,15.97
2017-08-23T06:35:52.365Z,16.07
2017-08-23T06:38:21.411Z,16.15
2017-08-23T06:40:50.495Z,16.25
2017-08-23T06:43:19.593Z,16.36
2017-08-23T06:45:48.672Z,16.52
2017-08-23T06:48:18.511Z,16.67
2017-08-23T06:50:47.584Z,16.86
2017-08-23T06:53:16.668Z,16.95
2017-08-23T06:55:45.734Z,17.08
2017-08-23T06:58:14.800Z,17.16
2017-08-23T07:00:43.879Z,17.20
2017-08-23T07:03:12.953Z,17.22
2017-08-23T07:05:42.049Z,17.28
2017-08-23T07:08:11.430Z,17.42
2017-08-23T07:10:40.503Z,17.60
2017-08-23T07:13:09.941Z,17.75
2017-08-23T07:15:39.224Z,17.85
2017-08-23T07:18:08.325Z,17.97
2017-08-23T07:20:37.363Z,18.00
2017-08-23T07:23:06.453Z,18.18
2017-08-23T07:25:36.299Z,18.28
2017-08-23T07:28:05.652Z,18.42
2017-08-23T07:30:35.485Z,18.52
2017-08-23T07:33:04.536Z,18.59
2017-08-23T07:35:33.616Z,18.72
2017-08-23T07:38:02.683Z,18.91
2017-08-23T07:40:31.768Z,19.10
2017-08-23T07:43:00.835Z,19.35
2017-08-23T07:45:29.915Z,19.60
2017-08-23T07:47:59.051Z,19.81
2017-08-23T07:50:28.100Z,20.03
2017-08-23T07:52:57.183Z,20.24
2017-08-23T07:55:26.247Z,20.46
2017-08-23T07:57:55.318Z,20.66
2017-08-23T08:00:24.379Z,20.80
2017-08-23T08:02:53.443Z,20.89
2017-08-23T08:05:22.524Z,20.91
2017-08-23T08:07:51.594Z,20.97
2017-08-23T08:10:21.910Z,21.08
2017-08-23T08:12:50.948Z,21.23
2017-08-23T08:15:20.005Z,21.33
2017-08-23T08:17:49.072Z,21.51
2017-08-23T08:20:18.146Z,21.70
2017-08-23T08:22:47.228Z,21.91
2017-08-23T08:25:16.696Z,22.12
2017-08-23T08:27:45.767Z,22.27
2017-08-23T08:30:14.861Z,22.39
2017-08-23T08:32:43.924Z,22.50
2017-08-23T08:35:13.015Z,22.62
2017-08-23T08:37:42.065Z,22.71
2017-08-23T08:40:11.125Z,22.72
2017-08-23T08:42:40.199Z,22.72
2017-08-23T08:45:09.257Z,22.81
2017-08-23T08:47:39.112Z,22.86
2017-08-23T08:50:08.140Z,22.79
2017-08-23T08:52:37.213Z,22.82
2017-08-23T08:55:06.281Z,22.90
2017-08-23T08:57:35.364Z,22.97
2017-08-23T09:00:04.885Z,22.98
2017-08-23T09:02:33.924Z,23.08
2017-08-23T09:05:02.995Z,23.11
2017-08-23T09:07:32.076Z,23.11
2017-08-23T09:10:01.254Z,23.12
2017-08-23T09:12:31.060Z,23.15
2017-08-23T09:15:00.878Z,23.16
2017-08-23T09:17:29.940Z,23.27
2017-08-23T09:19:59.329Z,23.46
2017-08-23T09:22:28.392Z,23.55
2017-08-23T09:24:57.450Z,23.65
2017-08-23T09:27:27.259Z,23.75
2017-08-23T09:29:56.373Z,23.79
2017-08-23T09:32:25.452Z,23.93
2017-08-23T09:34:54.503Z,24.02
2017-08-23T09:37:24.378Z,24.13
2017-08-23T09:39:54.233Z,24.22
2017-08-23T09:42:23.312Z,24.23
2017-08-23T09:44:52.362Z,24.36
2017-08-23T09:47:21.442Z,24.59
2017-08-23T09:49:51.553Z,24.82
2017-08-23T09:52:20.739Z,24.94
2017-08-23T09:54:49.796Z,25.01
2017-08-23T09:57:18.872Z,25.12
2017-08-23T09:59:48.695Z,25.19
2017-08-23T10:02:18.660Z,25.17
2017-08-23T10:04:47.743Z,25.10
2017-08-23T10:07:16.791Z,25.07
2017-08-23T10:09:46.183Z,25.15
2017-08-23T10:12:15.244Z,25.26
2017-08-23T10:14:44.332Z,25.33
2017-08-23T10:17:13.383Z,25.43
2017-08-23T10:19:42.423Z,25.58
2017-08-23T10:22:11.528Z,25.65
2017-08-23T10:24:40.893Z,25.54
2017-08-23T10:27:10.078Z,25.43
2017-08-23T10:29:39.135Z,25.52
2017-08-23T10:32:08.213Z,25.60
2017-08-23T10:34:37.252Z,25.62
2017-08-23T10:37:06.313Z,25.84
2017-08-23T10:39:35.417Z,26.08
2017-08-23T10:42:04.460Z,26.21
2017-08-23T10:44:33.624Z,26.17
2017-08-23T10:47:02.679Z,26.01
2017-08-23T10:49:31.782Z,25.94
2017-08-23T10:52:00.835Z,25.83
2017-08-23T10:54:29.885Z,25.84
2017-08-23T10:56:58.981Z,25.92
2017-08-23T10:59:28.211Z,26.11
2017-08-23T11:01:57.277Z,26.29
2017-08-23T11:04:26.551Z,26.33
2017-08-23T11:06:55.624Z,26.39
2017-08-23T11:09:24.695Z,26.48
2017-08-23T11:11:53.750Z,26.64
2017-08-23T11:14:22.815Z,26.82
2017-08-23T11:16:51.887Z,26.91
2017-08-23T11:21:59.034Z,26.99
2017-08-23T11:24:28.104Z,27.06
2017-08-23T11:26:57.140Z,27.03
2017-08-23T11:29:26.416Z,27.09
2017-08-23T11:31:55.492Z,27.17
2017-08-23T11:34:24.567Z,27.31
2017-08-23T11:36:53.620Z,27.44
2017-08-23T11:39:22.711Z,27.54
2017-08-23T11:41:51.738Z,27.61
2017-08-23T11:44:22.134Z,27.58
2017-08-23T11:46:51.239Z,27.52
2017-08-23T11:49:20.274Z,27.37
2017-08-23T11:51:49.341Z,27.34
2017-08-23T11:54:18.391Z,27.36
2017-08-23T11:56:47.455Z,27.38
2017-08-23T11:59:16.487Z,27.40
2017-08-23T12:01:45.568Z,27.44
2017-08-23T12:04:14.615Z,27.36
2017-08-23T12:06:43.691Z,27.37
2017-08-23T12:09:13.373Z,27.35
2017-08-23T12:11:42.456Z,27.16
2017-08-23T12:14:11.551Z,27.14
2017-08-23T12:16:40.601Z,27.17
2017-08-23T12:19:09.678Z,27.08
2017-08-23T12:21:38.740Z,27.03
2017-08-23T12:24:07.825Z,27.07
2017-08-23T12:26:37.043Z,27.15
2017-08-23T12:29:06.099Z,27.18
2017-08-23T12:31:35.158Z,27.22
2017-08-23T12:34:04.281Z,27.22
2017-08-23T12:36:33.324Z,27.30
2017-08-23T12:39:02.464Z,27.29
2017-08-23T12:41:32.605Z,27.31
2017-08-23T12:44:01.671Z,27.40
2017-08-23T12:46:30.888Z,27.51
2017-08-23T12:48:59.940Z,27.61
2017-08-23T12:51:29.351Z,27.70
2017-08-23T12:53:58.376Z,27.80
2017-08-23T12:56:27.460Z,27.85
2017-08-23T12:58:56.538Z,27.81
2017-08-23T13:01:25.584Z,27.56
2017-08-23T13:03:54.770Z,27.36
2017-08-23T13:06:23.833Z,27.28
2017-08-23T13:08:52.887Z,27.31
2017-08-23T13:11:21.963Z,27.43
2017-08-23T13:13:51.003Z,27.57
2017-08-23T13:16:20.084Z,27.70
2017-08-23T13:18:49.106Z,27.85
2017-08-23T13:21:18.177Z,27.94
2017-08-23T13:23:47.218Z,27.97
2017-08-23T13:26:16.276Z,27.94
2017-08-23T13:28:45.344Z,28.00
2017-08-23T13:31:14.412Z,28.06
2017-08-23T13:33:44.324Z,28.12
2017-08-23T13:36:13.388Z,28.09
2017-08-23T13:38:42.431Z,28.09
2017-08-23T13:41:13.223Z,28.11
2017-08-23T13:43:42.289Z,28.17
2017-08-23T13:46:12.293Z,28.16
2017-08-23T13:48:41.713Z,28.05
2017-08-23T13:51:10.771Z,28.06
2017-08-23T13:53:39.850Z,28.02
2017-08-23T13:56:08.958Z,28.02
2017-08-23T13:58:38.039Z,27.97
2017-08-23T14:01:07.121Z,28.07
2017-08-23T14:03:36.203Z,28.17
2017-08-23T14:06:05.229Z,28.17
2017-08-23T14:08:34.287Z,28.19
2017-08-23T14:11:03.346Z,28.23
2017-08-23T14:13:32.423Z,28.27
2017-08-23T14:16:01.474Z,28.21
2017-08-23T14:18:30.532Z,28.18
2017-08-23T14:20:59.608Z,28.20
2017-08-23T14:23:28.667Z,28.14
2017-08-23T14:25:57.720Z,28.11
2017-08-23T14:28:26.900Z,28.16
2017-08-23T14:30:55.936Z,28.15
2017-08-23T14:33:35.298Z,28.19
2017-08-23T14:36:04.293Z,28.18
2017-08-23T14:38:33.384Z,28.18
2017-08-23T14:41:03.484Z,28.15
2017-08-23T14:43:32.560Z,28.17
2017-08-23T14:46:01.633Z,28.17
2017-08-23T14:48:30.703Z,28.18
2017-08-23T14:50:59.796Z,28.27
2017-08-23T14:53:28.893Z,28.28
2017-08-23T14:55:57.969Z,28.21
2017-08-23T14:58:27.040Z,28.18
2017-08-23T15:00:56.085Z,28.22
2017-08-23T15:03:25.158Z,28.29
2017-08-23T15:05:54.233Z,28.21
2017-08-23T15:08:23.271Z,28.19
2017-08-23T15:10:52.335Z,28.15
2017-08-23T15:13:21.392Z,28.16
2017-08-23T15:15:50.455Z,28.19
2017-08-23T15:18:19.524Z,28.17
2017-08-23T15:20:48.776Z,28.17
2017-08-23T15:23:17.825Z,28.03
2017-08-23T15:25:46.884Z,28.10
2017-08-23T15:28:15.971Z,28.17
2017-08-23T15:30:45.045Z,28.16
2017-08-23T15:33:14.101Z,28.12
2017-08-23T15:35:43.151Z,28.11
2017-08-23T15:38:12.236Z,28.10
2017-08-23T15:40:41.316Z,28.09
2017-08-23T15:43:10.366Z,28.06
2017-08-23T15:45:39.465Z,28.11
2017-08-23T15:48:08.556Z,28.22
2017-08-23T15:50:37.653Z,28.24
2017-08-23T15:53:06.731Z,28.28
2017-08-23T15:55:35.790Z,28.25
2017-08-23T15:58:04.873Z,28.29
2017-08-23T16:00:34.043Z,28.31
2017-08-23T16:03:03.104Z,28.28
2017-08-23T16:05:33.128Z,28.26
2017-08-23T16:08:02.236Z,28.19
2017-08-23T16:10:31.288Z,28.17
2017-08-23T16:13:00.343Z,28.19
2017-08-23T16:15:29.396Z,28.16
2017-08-23T16:17:58.468Z,28.10
2017-08-23T16:20:27.532Z,28.06
2017-08-23T16:22:56.598Z,28.00
2017-08-23T16:25:25.635Z,27.94
2017-08-23T16:27:55.918Z,27.83
2017-08-23T16:30:27.239Z,27.71
2017-08-23T16:32:56.301Z,27.68
2017-08-23T16:35:25.356Z,27.71
2017-08-23T16:37:54.421Z,27.72
2017-08-23T16:40:23.500Z,27.67
2017-08-23T16:42:52.577Z,27.62
2017-08-23T16:45:21.644Z,27.48
2017-08-23T16:47:50.704Z,27.41
2017-08-23T16:50:19.771Z,27.40
2017-08-23T16:52:48.823Z,27.37
2017-08-23T16:55:17.925Z,27.36
2017-08-23T16:57:46.994Z,27.32
2017-08-23T17:00:16.056Z,27.24
2017-08-23T17:02:45.155Z,27.20
2017-08-23T17:05:14.215Z,27.20
2017-08-23T17:07:43.302Z,27.12
2017-08-23T17:10:12.343Z,27.10
2017-08-23T17:12:41.393Z,27.01
2017-08-23T17:15:10.486Z,27.00
2017-08-23T17:17:39.606Z,26.99
2017-08-23T17:20:08.657Z,26.93
2017-08-23T17:22:37.725Z,26.93
2017-08-23T17:25:06.824Z,26.90
2017-08-23T17:27:35.888Z,26.86
2017-08-23T17:30:05.014Z,26.80
2017-08-23T17:32:34.059Z,26.76
2017-08-23T17:35:05.276Z,26.74
2017-08-23T17:37:34.337Z,26.66
2017-08-23T17:40:03.561Z,26.58
2017-08-23T17:42:32.580Z,26.46
2017-08-23T17:45:01.631Z,26.37
2017-08-23T17:47:30.709Z,26.36
2017-08-23T17:49:59.763Z,26.33
2017-08-23T17:52:28.844Z,26.30
2017-08-23T17:54:57.917Z,26.27
2017-08-23T17:57:26.971Z,26.20
2017-08-23T17:59:56.013Z,26.11
2017-08-23T18:02:25.084Z,26.08
2017-08-23T18:04:54.147Z,26.03
2017-08-23T18:07:23.727Z,26.00
2017-08-23T18:09:54.256Z,25.99
2017-08-23T18:12:23.332Z,25.96
2017-08-23T18:14:53.122Z,25.93
2017-08-23T18:17:22.161Z,25.86
2017-08-23T18:19:51.262Z,25.76
2017-08-23T18:22:20.287Z,25.71
2017-08-23T18:24:49.400Z,25.59
2017-08-23T18:27:18.475Z,25.46
2017-08-23T18:29:47.527Z,25.39
2017-08-23T18:32:16.612Z,25.30
2017-08-23T18:34:45.664Z,25.19
2017-08-23T18:37:14.723Z,25.07
2017-08-23T18:39:43.792Z,24.99
2017-08-23T18:42:12.875Z,24.89
2017-08-23T18:44:42.172Z,24.80
2017-08-23T18:47:11.318Z,24.70
2017-08-23T18:49:40.385Z,24.61
2017-08-23T18:52:10.426Z,24.49
2017-08-23T18:54:39.497Z,24.38
2017-08-23T18:57:08.595Z,24.30
2017-08-23T18:59:37.690Z,24.26
2017-08-23T19:02:06.775Z,24.20
2017-08-23T19:04:35.847Z,24.15
2017-08-23T19:07:05.157Z,24.09
2017-08-23T19:09:34.276Z,24.07
2017-08-23T19:12:03.367Z,24.05
2017-08-23T19:14:32.461Z,24.03
2017-08-23T19:17:01.520Z,23.98
2017-08-23T19:19:30.570Z,23.96
2017-08-23T19:21:59.630Z,23.89
2017-08-23T19:24:28.700Z,23.90
2017-08-23T19:26:57.751Z,23.84
2017-08-23T19:29:26.844Z,23.83
2017-08-23T19:31:55.922Z,23.78
2017-08-23T19:34:25.001Z,23.71
2017-08-23T19:36:54.083Z,23.67
2017-08-23T19:39:23.676Z,23.64
2017-08-23T19:41:52.736Z,23.61
2017-08-23T19:44:21.805Z,23.52
2017-08-23T19:46:50.860Z,23.45
2017-08-23T19:49:19.897Z,23.36
2017-08-23T19:51:49.137Z,23.30
2017-08-23T19:54:18.195Z,23.25
2017-08-23T19:56:47.289Z,23.22
2017-08-23T19:59:16.402Z,23.09
2017-08-23T20:01:45.483Z,23.08
2017-08-23T20:04:14.557Z,23.02
2017-08-23T20:06:43.831Z,23.00
2017-08-23T20:09:12.914Z,22.99
2017-08-23T20:11:42.028Z,22.98
2017-08-23T20:14:11.080Z,22.95
2017-08-23T20:16:40.149Z,22.94
2017-08-23T20:19:09.218Z,22.96
2017-08-23T20:21:38.286Z,22.96
2017-08-23T20:24:07.669Z,22.97
2017-08-23T20:26:36.732Z,22.98
2017-08-23T20:29:05.783Z,22.96
2017-08-23T20:31:34.900Z,22.94
2017-08-23T20:34:03.965Z,22.97
2017-08-23T20:36:33.420Z,23.00
2017-08-23T20:39:02.474Z,23.00
2017-08-23T20:41:31.544Z,23.00
2017-08-23T20:44:00.625Z,23.00
2017-08-23T20:46:29.667Z,22.97
2017-08-23T20:48:59.103Z,22.98
2017-08-23T20:51:28.149Z,22.95
2017-08-23T20:53:57.221Z,22.96
2017-08-23T20:56:26.286Z,22.99
2017-08-23T20:58:56.174Z,22.97
2017-08-23T21:01:25.309Z,23.00
2017-08-23T21:03:54.399Z,23.01
2017-08-23T21:06:23.481Z,23.02
2017-08-23T21:08:52.552Z,23.03
2017-08-23T21:11:21.623Z,23.03
2017-08-23T21:13:50.787Z,23.02
2017-08-23T21:16:20.071Z,23.04
2017-08-23T21:18:49.143Z,22.99
2017-08-23T21:21:18.351Z,23.04
2017-08-23T21:23:47.420Z,23.05
2017-08-23T21:26:16.499Z,23.04
2017-08-23T21:28:45.584Z,23.02
2017-08-23T21:31:14.637Z,23.05
2017-08-23T21:33:43.729Z,23.04
2017-08-23T21:36:12.794Z,23.08
2017-08-23T21:38:41.912Z,23.06
2017-08-23T21:41:10.988Z,23.07
2017-08-23T21:43:40.063Z,23.07
2017-08-23T21:46:09.219Z,23.10
2017-08-23T21:48:38.952Z,23.08
2017-08-23T21:51:08.024Z,23.10
2017-08-23T21:53:37.106Z,23.10
2017-08-23T21:56:06.175Z,23.08
2017-08-23T21:58:35.236Z,23.06
2017-08-23T22:01:04.324Z,23.03
2017-08-23T22:03:33.394Z,22.98
2017-08-23T22:06:02.466Z,23.03
2017-08-23T22:11:18.675Z,23.03
2017-08-23T22:13:47.750Z,23.07
2017-08-23T22:16:16.792Z,23.10
2017-08-23T22:18:45.820Z,23.08
2017-08-23T22:21:14.888Z,23.09
2017-08-23T22:23:44.089Z,23.11
2017-08-23T22:26:13.171Z,23.13
2017-08-23T22:28:42.256Z,23.14
2017-08-23T22:31:11.304Z,23.17
2017-08-23T22:33:40.377Z,23.20
2017-08-23T22:36:09.473Z,23.23
2017-08-23T22:38:38.546Z,23.27
2017-08-23T22:41:07.635Z,23.27
2017-08-23T22:43:36.733Z,23.25
2017-08-23T22:46:05.835Z,23.25
2017-08-23T22:48:34.867Z,23.29
2017-08-23T22:51:03.927Z,23.32
2017-08-23T22:53:33.071Z,23.35
2017-08-23T22:56:02.142Z,23.31
2017-08-23T22:58:31.203Z,23.32
2017-08-23T23:01:00.240Z,23.28
2017-08-23T23:03:29.306Z,23.28
2017-08-23T23:05:58.363Z,23.29
2017-08-23T23:08:27.436Z,23.25
2017-08-23T23:10:56.496Z,23.21
2017-08-23T23:13:25.534Z,23.21
2017-08-23T23:15:54.636Z,23.18
2017-08-23T23:18:23.708Z,23.13
2017-08-23T23:20:52.756Z,23.13
2017-08-23T23:23:21.854Z,23.10
2017-08-23T23:25:50.892Z,23.08
2017-08-23T23:28:19.963Z,23.06
2017-08-23T23:30:49.025Z,23.02
2017-08-23T23:33:18.068Z,23.04
2017-08-23T23:35:47.147Z,23.01
2017-08-23T23:38:16.180Z,22.98
2017-08-23T23:40:45.240Z,22.95
2017-08-23T23:43:14.307Z,22.91
2017-08-23T23:45:43.399Z,22.91
2017-08-23T23:48:12.931Z,22.86
2017-08-23T23:50:42.007Z,22.83
2017-08-23T23:53:11.076Z,22.81
2017-08-23T23:55:40.135Z,22.81
2017-08-23T23:58:09.556Z,22.80
